Current | Forecast
Updated: 6:30 PM JST on May 24, 2017
Observed at Kansai, Japan
Temperature 66°F
Humidity 94%
Dew Point 64°F
Wind SSE at 4 mph
Pressure 29.74 in (Steady)
Conditions Light Rain Showers
Visibility 6.2 miles
UV 0 out of 16
Clouds (FEW) : 800 ft
Mostly Cloudy (BKN) : 4000 ft
Mostly Cloudy (BKN) : 7000 ft
Yesterday's Maximum 79°F
Yesterday's Minimum 68°F approx.
Yesterday's Cooling Degree Days 8 approx.
Sunrise4:52 AM JST
Sunset7:02 PM JST
Moon Rise3:44 AM JST
Moon Set5:06 PM JST
Moon PhaseMoon Phase
Waning Crescent
Raw METARMETAR RJBB 240930Z 16003KT 9999 -SHRA FEW008 BKN040 BKN070 19/18 Q1007 NOSIG


Monday
. High: 73° F.
Tuesday
. High: 75° F.
Wednesday
. High: 71° F.
Thursday
. High: 75° F.
Friday
. High: 75° F.
Saturday
. High: 75° F.
Sunday
. High: 75° F.
Monday
. High: 69° F.

Units: English | Metric

Find the Weather for any City, State or Zipcode, or Country:

U.S. State List | Severe Weather | Tropical Storms | Ski Conditions
United States | Canada | Central America | South America | Asia | Europe | Australia | Africa | Islands

Weather Underground

© Copyright 2017
The Weather Company, LLC